Time;durP1;ratioP1;P1;durP2;ratioP2;P2;SDS_P1;SDS_P2;PMS_P1;PMS_P2;Temp;Humidity;BMP_temperature;BMP_pressure;BME280_temperature;BME280_humidity;BME280_pressure;Samples;Min_cycle;Max_cycle;Signal;HPM_P1;HPM_P2
2024/03/21 00:03:40;;;;;;;66.20;33.10;;;;;;;7.33;81.88;100952.31;214293;1291;138958;-83
2024/03/21 00:08:41;;;;;;;63.20;33.10;;;;;;;7.33;81.88;100948.95;213985;1290;139875;-83
2024/03/21 00:13:41;;;;;;;69.70;33.40;;;;;;;7.34;81.72;100951.03;214602;1285;139253;-83
2024/03/21 00:18:43;;;;;;;70.10;33.70;;;;;;;7.37;81.66;100953.84;213826;1288;140145;-82
2024/03/21 00:23:43;;;;;;;68.10;33.80;;;;;;;7.37;81.79;100950.25;214553;1285;99303;-83
2024/03/21 00:28:46;;;;;;;65.50;32.00;;;;;;;7.39;81.53;100944.45;213596;1285;139017;-83
2024/03/21 00:33:50;;;;;;;68.00;31.20;;;;;;;7.41;81.50;100934.49;213988;1285;139077;-83
2024/03/21 00:38:50;;;;;;;64.90;31.20;;;;;;;7.42;81.16;100918.10;213301;1288;139825;-83
2024/03/21 00:43:51;;;;;;;60.70;30.40;;;;;;;7.43;81.16;100912.02;214004;1289;139143;-83
2024/03/21 00:48:51;;;;;;;59.60;30.60;;;;;;;7.44;81.07;100912.06;214599;1285;140180;-83
2024/03/21 00:53:52;;;;;;;56.90;30.30;;;;;;;7.45;80.49;100917.73;214167;1288;100125;-83
2024/03/21 00:58:58;;;;;;;59.30;29.20;;;;;;;7.45;80.33;100920.30;213463;1291;140424;-84
2024/03/21 01:03:59;;;;;;;73.60;32.30;;;;;;;7.45;80.11;100916.55;213959;1291;138947;-83
2024/03/21 01:08:59;;;;;;;57.40;31.00;;;;;;;7.46;79.98;100910.88;213859;1286;139995;-83
2024/03/21 01:14:00;;;;;;;64.40;30.30;;;;;;;7.48;80.06;100906.88;214698;1285;139138;-83
2024/03/21 01:19:00;;;;;;;62.20;31.10;;;;;;;7.48;80.37;100898.81;214108;1286;139446;-83
2024/03/21 01:24:01;;;;;;;65.50;33.30;;;;;;;7.48;80.25;100895.28;214910;1289;99350;-83
2024/03/21 01:29:01;;;;;;;64.90;31.90;;;;;;;7.48;80.02;100887.08;214297;1285;139748;-83
2024/03/21 01:34:02;;;;;;;62.80;31.30;;;;;;;7.49;79.71;100880.69;214765;1289;139786;-83
2024/03/21 01:39:03;;;;;;;64.50;32.20;;;;;;;7.49;79.97;100874.11;214093;1289;139932;-83
2024/03/21 01:44:04;;;;;;;64.30;32.90;;;;;;;7.48;79.81;100868.60;214008;1288;139153;-83
2024/03/21 01:49:04;;;;;;;67.90;33.80;;;;;;;7.48;79.48;100855.30;215172;1285;140311;-84
2024/03/21 01:54:07;;;;;;;73.80;33.80;;;;;;;7.48;79.30;100855.46;214237;1289;107215;-84
2024/03/21 01:59:08;;;;;;;65.90;33.40;;;;;;;7.46;79.30;100853.53;213478;1291;140168;-83
2024/03/21 02:04:10;;;;;;;66.80;33.20;;;;;;;7.45;79.50;100848.72;213989;1286;138951;-82
2024/03/21 02:09:11;;;;;;;63.00;32.70;;;;;;;7.42;79.40;100848.16;213432;1289;139189;-83
2024/03/21 02:14:13;;;;;;;65.20;33.60;;;;;;;7.40;79.41;100848.10;213950;1285;139096;-82
2024/03/21 02:19:13;;;;;;;60.90;30.60;;;;;;;7.38;80.02;100848.73;213568;1286;140371;-83
2024/03/21 02:24:13;;;;;;;68.50;34.40;;;;;;;7.36;80.03;100847.58;214048;1289;109031;-83
2024/03/21 02:29:14;;;;;;;61.50;31.70;;;;;;;7.34;80.25;100846.02;213438;1285;140155;-83
2024/03/21 02:34:14;;;;;;;63.30;32.50;;;;;;;7.34;80.18;100839.84;213807;1290;140768;-84
2024/03/21 02:39:15;;;;;;;71.90;34.50;;;;;;;7.33;80.35;100838.34;213310;1287;140212;-84
2024/03/21 02:44:16;;;;;;;83.30;38.20;;;;;;;7.33;80.74;100838.17;213834;1284;139397;-83
2024/03/21 02:49:16;;;;;;;69.80;35.70;;;;;;;7.33;80.14;100837.80;213698;1290;141310;-82
2024/03/21 02:54:16;;;;;;;69.80;35.00;;;;;;;7.34;80.13;100844.48;215050;1285;99323;-82
2024/03/21 02:59:17;;;;;;;70.50;33.40;;;;;;;7.34;80.30;100840.96;213328;1291;139959;-82
2024/03/21 03:04:17;;;;;;;71.00;36.30;;;;;;;7.34;80.38;100840.01;213929;1288;139282;-83
2024/03/21 03:09:20;;;;;;;87.80;39.10;;;;;;;7.32;80.31;100838.84;213369;1285;141019;-83
2024/03/21 03:14:21;;;;;;;78.10;36.50;;;;;;;7.31;80.40;100838.83;213923;1289;139001;-84
2024/03/21 03:19:21;;;;;;;88.30;38.30;;;;;;;7.28;80.44;100832.57;213462;1289;141840;-84
2024/03/21 03:24:21;;;;;;;77.20;35.50;;;;;;;7.27;80.92;100831.50;213952;1291;138885;-83
2024/03/21 03:29:22;;;;;;;72.00;34.00;;;;;;;7.27;81.15;100831.96;213674;1288;140129;-84
2024/03/21 03:39:42;;;;;;;72.90;36.50;;;;;;;7.27;81.34;100828.52;213331;1289;139949;-84
2024/03/21 03:44:42;;;;;;;68.90;35.30;;;;;;;7.26;81.01;100820.92;213993;1288;138974;-83
2024/03/21 03:49:43;;;;;;;69.50;33.90;;;;;;;7.25;81.31;100823.40;213415;1289;140654;-84
2024/03/21 03:54:43;;;;;;;71.00;35.70;;;;;;;7.25;81.21;100821.10;215555;1288;139191;-83
2024/03/21 03:59:44;;;;;;;71.20;35.70;;;;;;;7.24;81.69;100811.23;213438;1289;140045;-82
2024/03/21 04:04:44;;;;;;;81.80;37.30;;;;;;;7.23;81.82;100815.98;212643;1289;138686;-85
2024/03/21 04:09:44;;;;;;;71.00;34.70;;;;;;;7.22;81.80;100807.03;213318;1286;140290;-83
2024/03/21 04:14:48;;;;;;;71.80;35.50;;;;;;;7.20;82.15;100805.94;213828;1286;138910;-82
2024/03/21 04:19:49;;;;;;;78.00;36.90;;;;;;;7.19;82.09;100807.41;213584;1285;140567;-83
2024/03/21 04:24:50;;;;;;;73.00;34.90;;;;;;;7.19;81.99;100807.01;213917;1286;139118;-83
2024/03/21 04:29:50;;;;;;;74.20;37.60;;;;;;;7.19;82.20;100801.69;213397;1286;139474;-83
2024/03/21 04:34:51;;;;;;;73.80;36.50;;;;;;;7.18;82.71;100796.73;213814;1286;138696;-83
2024/03/21 04:39:51;;;;;;;72.60;37.90;;;;;;;7.18;83.49;100796.81;213355;1291;140076;-83
2024/03/21 04:44:52;;;;;;;76.90;38.70;;;;;;;7.16;83.52;100797.27;213757;1286;138866;-83
2024/03/21 04:49:54;;;;;;;77.80;38.60;;;;;;;7.14;83.73;100796.14;213363;1288;140099;-83
2024/03/21 04:54:55;;;;;;;71.90;37.10;;;;;;;7.11;84.19;100799.73;215021;1286;139331;-84
2024/03/21 04:59:55;;;;;;;86.40;40.00;;;;;;;7.09;84.55;100793.95;213903;1286;139386;-83
2024/03/21 05:04:56;;;;;;;84.70;41.60;;;;;;;7.05;84.33;100794.53;213988;1290;139086;-84
2024/03/21 05:09:57;;;;;;;88.80;43.40;;;;;;;6.99;84.95;100787.55;213896;1286;139489;-84
2024/03/21 05:14:57;;;;;;;90.20;43.80;;;;;;;7.00;85.43;100792.43;214671;1285;139357;-84
2024/03/21 05:19:58;;;;;;;89.30;43.40;;;;;;;6.97;85.51;100790.86;214244;1290;141235;-84
2024/03/21 05:24:59;;;;;;;83.60;41.80;;;;;;;6.97;85.77;100792.02;214720;1289;138961;-84
2024/03/21 05:29:59;;;;;;;86.70;42.80;;;;;;;6.98;86.05;100792.91;214266;1288;139826;-84
2024/03/21 05:35:00;;;;;;;91.40;43.20;;;;;;;7.01;86.23;100793.32;214623;1285;139444;-84
2024/03/21 05:40:00;;;;;;;83.80;42.90;;;;;;;7.04;86.35;100789.26;213620;1288;139965;-84
2024/03/21 05:45:01;;;;;;;83.30;43.90;;;;;;;7.05;86.43;100782.64;213970;1288;138865;-84
2024/03/21 05:50:02;;;;;;;93.20;45.20;;;;;;;7.08;86.59;100782.52;213275;1289;142133;-84
2024/03/21 05:55:03;;;;;;;89.00;44.30;;;;;;;7.12;86.83;100783.17;213904;1289;139041;-84
2024/03/21 06:00:09;;;;;;;91.10;45.60;;;;;;;7.17;86.78;100779.88;214736;1288;140514;-82
2024/03/21 06:05:10;;;;;;;87.30;44.70;;;;;;;7.20;87.09;100780.86;214050;1288;139570;-84
2024/03/21 06:10:10;;;;;;;90.00;40.30;;;;;;;7.25;87.15;100779.11;213567;1288;139163;-84
2024/03/21 06:15:11;;;;;;;77.30;37.60;;;;;;;7.30;86.94;100781.37;213981;1286;138941;-83
2024/03/21 06:20:12;;;;;;;90.60;41.60;;;;;;;7.37;86.46;100784.48;213497;1291;140277;-83
2024/03/21 06:25:12;;;;;;;92.10;42.20;;;;;;;7.45;85.53;100789.73;214014;1288;139021;-83
2024/03/21 06:30:13;;;;;;;76.70;37.10;;;;;;;7.53;85.08;100792.55;213692;1284;139946;-83
2024/03/21 06:35:14;;;;;;;78.30;38.80;;;;;;;7.60;85.17;100793.67;214049;1285;138555;-83
2024/03/21 06:40:14;;;;;;;73.90;39.00;;;;;;;7.67;84.60;100789.56;213738;1285;140147;-82
2024/03/21 06:45:15;;;;;;;72.30;36.50;;;;;;;7.74;84.43;100788.75;214106;1285;139052;-82
2024/03/21 06:50:18;;;;;;;79.60;37.70;;;;;;;7.81;84.46;100789.59;213552;1287;140700;-83
2024/03/21 06:55:18;;;;;;;73.50;38.00;;;;;;;7.91;84.63;100799.80;214265;1286;139118;-83
2024/03/21 07:00:21;;;;;;;78.70;37.90;;;;;;;8.02;84.76;100801.67;215160;1286;139619;-82
2024/03/21 07:05:25;;;;;;;76.00;37.10;;;;;;;8.11;83.48;100808.52;214140;1288;138519;-82
2024/03/21 07:10:25;;;;;;;79.70;38.90;;;;;;;8.22;83.28;100810.47;213335;1285;140011;-82
2024/03/21 07:15:26;;;;;;;74.00;35.90;;;;;;;8.30;82.61;100805.67;214094;1288;139916;-82
2024/03/21 07:20:26;;;;;;;79.40;38.60;;;;;;;8.37;83.12;100809.00;213842;1292;139862;-82
2024/03/21 07:25:27;;;;;;;75.60;37.00;;;;;;;8.51;83.57;100810.84;214180;1288;139028;-81
2024/03/21 07:30:27;;;;;;;76.60;35.30;;;;;;;8.63;83.51;100810.60;213626;1285;161099;-82
2024/03/21 07:35:28;;;;;;;83.20;36.00;;;;;;;8.75;83.46;100808.45;214173;1285;99944;-82
2024/03/21 07:40:28;;;;;;;69.00;35.90;;;;;;;8.87;83.78;100803.89;213846;1285;140413;-82
2024/03/21 07:45:28;;;;;;;65.50;31.40;;;;;;;9.00;83.04;100799.71;214295;1285;139130;-82
2024/03/21 07:50:29;;;;;;;75.10;36.10;;;;;;;9.13;83.10;100802.23;214124;1286;138902;-82
2024/03/21 07:55:29;;;;;;;64.80;33.40;;;;;;;9.27;82.83;100795.64;214764;1284;140100;-83
2024/03/21 08:00:30;;;;;;;73.30;33.70;;;;;;;9.42;82.26;100795.33;214752;1285;139646;-82
2024/03/21 08:05:31;;;;;;;66.90;35.00;;;;;;;9.54;82.53;100796.23;215670;1286;99342;-83
2024/03/21 08:10:32;;;;;;;59.50;33.30;;;;;;;9.69;82.70;100790.26;213544;1285;139518;-82
2024/03/21 08:15:32;;;;;;;69.30;32.60;;;;;;;9.81;82.90;100793.56;214461;1285;138879;-83
2024/03/21 08:20:33;;;;;;;65.20;33.00;;;;;;;9.90;82.99;100799.40;213790;1288;140234;-82
2024/03/21 08:25:35;;;;;;;63.90;33.50;;;;;;;9.96;83.20;100803.99;214961;1285;138829;-83
2024/03/21 08:30:43;;;;;;;72.60;35.60;;;;;;;10.02;83.15;100806.06;214538;1285;141417;-82
2024/03/21 08:35:43;;;;;;;71.90;36.20;;;;;;;10.06;82.89;100803.35;214803;1284;107422;-82
2024/03/21 08:40:51;;;;;;;74.50;37.40;;;;;;;10.09;83.87;100806.87;213743;1286;140639;-83
2024/03/21 08:45:53;;;;;;;63.50;34.00;;;;;;;10.21;84.53;100815.66;214228;1285;139217;-83
2024/03/21 08:50:53;;;;;;;62.90;34.40;;;;;;;10.32;85.18;100823.88;213633;1285;141535;-82
2024/03/21 08:55:53;;;;;;;68.40;34.70;;;;;;;10.40;83.88;100823.48;214186;1284;139984;-83
2024/03/21 09:00:54;;;;;;;68.80;36.10;;;;;;;10.45;84.31;100823.09;213710;1288;140071;-83
2024/03/21 09:05:55;;;;;;;71.00;36.00;;;;;;;10.55;83.99;100827.91;215915;1285;99397;-82
2024/03/21 09:11:01;;;;;;;73.90;39.00;;;;;;;10.62;84.16;100825.83;213611;1285;140410;-82
2024/03/21 09:16:01;;;;;;;71.10;37.70;;;;;;;10.69;83.74;100821.46;214444;1285;139559;-81
2024/03/21 09:21:03;;;;;;;66.30;35.80;;;;;;;10.74;84.02;100823.35;212186;1286;139367;-81
2024/03/21 09:26:03;;;;;;;67.90;36.80;;;;;;;10.81;84.16;100816.88;212682;1285;140207;-82
2024/03/21 09:31:04;;;;;;;71.00;36.40;;;;;;;10.94;84.97;100815.90;212085;1288;139749;-81
2024/03/21 09:36:08;;;;;;;74.40;38.70;;;;;;;11.10;84.86;100813.94;212930;1286;100134;-82
2024/03/21 09:41:11;;;;;;;70.80;39.00;;;;;;;11.26;85.18;100813.86;212429;1287;140519;-80
2024/03/21 09:46:18;;;;;;;67.10;38.00;;;;;;;11.39;84.76;100807.89;212700;1289;140287;-82
2024/03/21 09:51:25;;;;;;;68.50;38.50;;;;;;;11.54;84.90;100808.58;212320;1290;141310;-82
2024/03/21 09:56:26;;;;;;;71.10;37.80;;;;;;;11.67;85.48;100804.54;216394;1285;794864;-83
2024/03/21 10:01:26;;;;;;;70.90;38.80;;;;;;;11.79;85.38;100804.37;218403;1285;140416;-81
2024/03/21 10:06:27;;;;;;;117.60;38.50;;;;;;;11.86;85.33;100804.67;214763;1287;139201;-82
2024/03/21 10:11:28;;;;;;;72.30;37.30;;;;;;;11.97;86.23;100803.86;212163;1300;140000;-82
2024/03/21 10:16:29;;;;;;;65.60;37.40;;;;;;;12.10;86.45;100802.42;213472;1290;139715;-81
2024/03/21 10:21:29;;;;;;;62.50;36.00;;;;;;;12.14;86.04;100800.10;213278;1289;140010;-83
2024/03/21 10:26:31;;;;;;;59.80;34.20;;;;;;;12.18;87.28;100799.85;212771;1284;139589;-82
2024/03/21 10:31:32;;;;;;;58.40;36.00;;;;;;;12.25;87.44;100796.05;212043;1285;139802;-82
2024/03/21 10:36:32;;;;;;;58.00;39.40;;;;;;;12.34;87.98;100795.04;212639;1290;139554;-82
2024/03/21 10:41:34;;;;;;;57.20;34.20;;;;;;;12.42;88.35;100793.38;212170;1290;139767;-82
2024/03/21 10:46:38;;;;;;;70.70;44.90;;;;;;;12.48;88.95;100787.52;212590;1289;139436;-82
2024/03/21 10:51:45;;;;;;;67.50;52.70;;;;;;;12.53;89.65;100785.84;212364;1285;140894;-82
2024/03/21 10:56:46;;;;;;;79.20;59.00;;;;;;;12.63;90.35;100786.31;212706;1285;139773;-83
2024/03/21 11:01:47;;;;;;;110.10;99.60;;;;;;;12.81;90.76;100788.27;212122;1285;140020;-83
2024/03/21 11:06:48;;;;;;;74.70;60.70;;;;;;;12.95;90.31;100777.11;213592;1285;139378;-81
2024/03/21 11:11:49;;;;;;;143.70;132.10;;;;;;;13.08;90.54;100774.21;213218;1288;207557;-81
2024/03/21 11:16:53;;;;;;;80.00;70.50;;;;;;;13.23;91.05;100768.13;212617;1285;139547;-83
2024/03/21 11:21:53;;;;;;;141.20;129.40;;;;;;;13.29;90.76;100767.38;212220;1285;139391;-83
2024/03/21 11:26:54;;;;;;;135.00;123.30;;;;;;;13.30;91.00;100764.15;212872;1285;140085;-83
2024/03/21 11:31:55;;;;;;;202.70;187.40;;;;;;;13.27;91.02;100755.14;212178;1285;140198;-82
2024/03/21 11:36:55;;;;;;;300.70;279.30;;;;;;;13.27;92.14;100755.52;212626;1285;139995;-83
2024/03/21 11:42:00;;;;;;;215.90;200.00;;;;;;;13.32;92.24;100753.58;212270;1289;140901;-82
2024/03/21 11:47:01;;;;;;;273.70;252.60;;;;;;;13.21;91.97;100747.76;212699;1288;139553;-80
2024/03/21 11:52:06;;;;;;;268.40;248.40;;;;;;;13.09;92.56;100750.61;212129;1285;140710;-80
2024/03/21 11:57:12;;;;;;;251.00;231.80;;;;;;;13.01;92.69;100744.01;212839;1284;139550;-81
2024/03/21 12:02:17;;;;;;;301.20;279.50;;;;;;;12.89;93.37;100734.73;212194;1291;140507;-81
2024/03/21 12:07:18;;;;;;;319.40;294.80;;;;;;;12.80;93.96;100735.30;212770;1287;139729;-80
2024/03/21 12:12:19;;;;;;;396.00;366.80;;;;;;;12.77;94.54;100730.80;214289;1285;139430;-81
2024/03/21 12:17:20;;;;;;;315.90;291.70;;;;;;;12.75;94.79;100727.46;212757;1289;139756;-82
2024/03/21 12:22:21;;;;;;;377.20;348.40;;;;;;;12.73;95.20;100728.39;212248;1285;140648;-82
2024/03/21 12:27:23;;;;;;;353.20;326.80;;;;;;;12.76;95.40;100733.94;214050;1285;139595;-82
2024/03/21 12:32:24;;;;;;;323.40;298.50;;;;;;;12.74;95.32;100730.21;213684;1290;143156;-82
2024/03/21 12:37:24;;;;;;;423.30;391.10;;;;;;;12.75;95.62;100735.98;214203;1285;140432;-83
2024/03/21 12:42:25;;;;;;;380.60;351.50;;;;;;;12.78;95.82;100737.59;213805;1285;140879;-83
2024/03/21 12:47:25;;;;;;;278.10;258.00;;;;;;;12.86;95.57;100737.48;214925;1285;111745;-84
2024/03/21 12:52:28;;;;;;;326.80;302.90;;;;;;;12.89;95.13;100737.50;213965;1285;140721;-84
2024/03/21 12:57:29;;;;;;;342.00;315.80;;;;;;;12.98;95.20;100737.35;214641;1285;140149;-83
2024/03/21 13:02:29;;;;;;;296.90;276.00;;;;;;;13.06;95.06;100743.64;214094;1285;140858;-82
2024/03/21 13:07:31;;;;;;;291.90;270.80;;;;;;;13.15;95.38;100736.66;214114;1285;139675;-83
2024/03/21 13:12:32;;;;;;;409.50;378.40;;;;;;;13.31;94.98;100734.61;214474;1288;140731;-85
2024/03/21 13:17:32;;;;;;;405.80;375.30;;;;;;;13.47;95.19;100731.92;213329;1286;99426;-84
2024/03/21 13:22:33;;;;;;;390.10;360.10;;;;;;;13.61;94.50;100731.43;213830;1285;140235;-84
2024/03/21 13:27:34;;;;;;;452.90;418.90;;;;;;;13.69;94.34;100731.85;214581;1284;139621;-84
2024/03/21 13:32:34;;;;;;;470.00;434.70;;;;;;;13.76;94.34;100726.66;214105;1285;140267;-84
2024/03/21 13:37:35;;;;;;;536.80;496.60;;;;;;;13.89;93.88;100721.94;214723;1285;139794;-83
2024/03/21 13:42:37;;;;;;;625.80;576.50;;;;;;;14.00;94.48;100723.94;213700;1285;139841;-83
2024/03/21 13:47:38;;;;;;;566.90;523.20;;;;;;;14.11;93.55;100710.84;214177;1285;105064;-83
2024/03/21 13:52:39;;;;;;;565.90;521.90;;;;;;;14.16;93.80;100708.55;212312;1285;140382;-84
2024/03/21 13:57:40;;;;;;;601.60;552.20;;;;;;;14.23;93.43;100716.34;212593;1285;139987;-84
2024/03/21 14:02:41;;;;;;;754.40;685.30;;;;;;;14.31;93.15;100719.19;213695;1285;140459;-84
2024/03/21 14:07:44;;;;;;;606.50;558.50;;;;;;;14.36;94.20;100713.80;214705;1285;139804;-85
2024/03/21 14:12:45;;;;;;;715.80;653.80;;;;;;;14.40;93.76;100708.04;215009;1285;140587;-84
2024/03/21 14:17:45;;;;;;;708.90;647.40;;;;;;;14.40;94.16;100707.49;215916;1284;108450;-83
2024/03/21 14:22:46;;;;;;;777.50;706.20;;;;;;;14.41;94.42;100704.64;214449;1285;140840;-84
2024/03/21 14:27:47;;;;;;;780.80;711.90;;;;;;;14.41;94.39;100700.91;215066;1284;140528;-83
2024/03/21 14:32:48;;;;;;;765.10;696.60;;;;;;;14.40;94.37;100697.67;214351;1285;140317;-82
2024/03/21 14:37:49;;;;;;;742.00;675.20;;;;;;;14.37;94.11;100697.91;214781;1285;140428;-84
2024/03/21 14:42:49;;;;;;;772.50;701.80;;;;;;;14.32;94.47;100701.70;214376;1285;140330;-84
2024/03/21 14:47:50;;;;;;;796.20;723.10;;;;;;;14.29;94.27;100690.55;215076;1284;98641;-84
2024/03/21 14:52:50;;;;;;;772.40;701.60;;;;;;;14.21;94.37;100683.11;214499;1288;140303;-85
2024/03/21 14:57:51;;;;;;;850.40;763.90;;;;;;;14.14;94.78;100688.38;214928;1288;139529;-84
2024/03/21 15:02:51;;;;;;;850.50;757.20;;;;;;;14.06;95.44;100680.00;214530;1285;140222;-84
2024/03/21 15:07:52;;;;;;;906.40;810.50;;;;;;;14.00;95.98;100677.52;215432;1285;139754;-85
2024/03/21 15:12:53;;;;;;;981.00;845.60;;;;;;;13.96;96.67;100685.44;214497;1286;140494;-84
2024/03/21 15:17:54;;;;;;;968.20;819.70;;;;;;;13.93;97.06;100685.27;216167;1285;99253;-85
2024/03/21 15:22:54;;;;;;;900.90;782.00;;;;;;;13.90;97.30;100689.38;214433;1285;139705;-84
2024/03/21 15:27:55;;;;;;;922.40;810.00;;;;;;;13.84;97.62;100694.90;215073;1285;139834;-85
2024/03/21 15:32:55;;;;;;;942.20;836.30;;;;;;;13.77;98.08;100702.31;214585;1284;140590;-85
2024/03/21 15:37:56;;;;;;;930.60;817.20;;;;;;;13.71;98.28;100705.93;214789;1288;139683;-84
2024/03/21 15:42:56;;;;;;;929.80;833.00;;;;;;;13.63;98.43;100703.38;214346;1288;140069;-84
2024/03/21 15:47:57;;;;;;;874.60;785.70;;;;;;;13.57;98.80;100708.66;214808;1285;99274;-85
2024/03/21 15:53:00;;;;;;;793.90;720.20;;;;;;;13.51;98.98;100706.02;214518;1285;140927;-83
2024/03/21 15:58:00;;;;;;;834.40;753.80;;;;;;;13.44;99.49;100707.42;215393;1285;139970;-83
2024/03/21 16:03:01;;;;;;;826.00;746.10;;;;;;;13.39;99.81;100716.48;214409;1285;140395;-83
2024/03/21 16:08:02;;;;;;;859.10;776.40;;;;;;;13.34;99.97;100721.52;214925;1285;139630;-83
2024/03/21 16:13:03;;;;;;;814.60;735.50;;;;;;;13.32;100.00;100727.13;214566;1285;140526;-83
2024/03/21 16:18:04;;;;;;;754.40;686.30;;;;;;;13.28;100.00;100725.45;215998;1284;98985;-84
2024/03/21 16:23:05;;;;;;;785.90;711.10;;;;;;;13.22;100.00;100726.98;214660;1285;140207;-83
2024/03/21 16:28:06;;;;;;;695.00;632.00;;;;;;;13.15;100.00;100717.70;215300;1288;139969;-83
2024/03/21 16:33:06;;;;;;;773.70;700.70;;;;;;;13.08;100.00;100715.95;214825;1285;140274;-84
2024/03/21 16:38:07;;;;;;;770.60;699.60;;;;;;;13.03;100.00;100718.60;215517;1285;140835;-83
2024/03/21 16:43:08;;;;;;;753.90;684.70;;;;;;;12.98;100.00;100719.42;215073;1286;141007;-84
2024/03/21 16:48:09;;;;;;;755.20;684.40;;;;;;;12.89;100.00;100722.35;215779;1285;99298;-83
2024/03/21 16:53:09;;;;;;;674.80;614.90;;;;;;;12.80;100.00;100725.61;215036;1285;139622;-84
2024/03/21 16:58:10;;;;;;;662.20;604.00;;;;;;;12.72;100.00;100723.81;215480;1285;139568;-83
2024/03/21 17:03:11;;;;;;;671.20;612.00;;;;;;;12.63;100.00;100732.66;214715;1285;139914;-83
2024/03/21 17:08:12;;;;;;;600.40;550.70;;;;;;;12.57;100.00;100736.64;215280;1285;139732;-83
2024/03/21 17:13:13;;;;;;;615.20;564.70;;;;;;;12.50;100.00;100744.55;214763;1285;142036;-83
2024/03/21 17:18:13;;;;;;;555.40;508.40;;;;;;;12.43;100.00;100749.52;215923;1285;99341;-85
2024/03/21 17:23:14;;;;;;;458.70;422.20;;;;;;;12.39;100.00;100746.20;215051;1285;140478;-83
2024/03/21 17:28:14;;;;;;;561.80;516.50;;;;;;;12.35;100.00;100741.96;215234;1285;140158;-83
2024/03/21 17:33:15;;;;;;;529.40;486.00;;;;;;;12.34;100.00;100751.49;214902;1285;140222;-83
2024/03/21 17:38:17;;;;;;;499.70;462.00;;;;;;;12.30;100.00;100755.96;215730;1286;140017;-83
2024/03/21 17:43:18;;;;;;;434.10;401.00;;;;;;;12.25;100.00;100756.08;214710;1288;140753;-84
2024/03/21 17:48:19;;;;;;;473.70;437.50;;;;;;;12.17;100.00;100762.55;215508;1285;115780;-84
2024/03/21 17:53:20;;;;;;;396.70;366.20;;;;;;;12.11;100.00;100767.21;215001;1285;140936;-85
2024/03/21 17:58:20;;;;;;;348.70;322.10;;;;;;;12.06;100.00;100780.95;215584;1286;141262;-84
2024/03/21 18:03:22;;;;;;;315.40;292.60;;;;;;;12.01;100.00;100792.41;215301;1285;153402;-84
2024/03/21 18:08:26;;;;;;;366.40;337.60;;;;;;;11.98;100.00;100784.17;215003;1286;140977;-83
2024/03/21 18:13:28;;;;;;;395.00;364.90;;;;;;;11.91;100.00;100775.34;215610;1285;139861;-82
2024/03/21 18:18:29;;;;;;;440.90;406.50;;;;;;;11.86;100.00;100776.71;214797;1285;139909;-81
2024/03/21 18:23:30;;;;;;;411.20;378.30;;;;;;;11.77;100.00;100775.98;216980;1285;99494;-83
2024/03/21 18:28:30;;;;;;;435.50;401.50;;;;;;;11.69;100.00;100781.01;214885;1285;140514;-84
2024/03/21 18:33:31;;;;;;;412.50;380.10;;;;;;;11.70;100.00;100785.42;215041;1285;140703;-84
2024/03/21 18:38:31;;;;;;;379.80;349.80;;;;;;;11.54;100.00;100786.39;214698;1285;141155;-85
2024/03/21 18:43:34;;;;;;;390.80;360.90;;;;;;;11.46;100.00;100799.98;215315;1285;140650;-85
2024/03/21 18:48:34;;;;;;;315.00;290.80;;;;;;;11.41;100.00;100801.64;214740;1285;140362;-84
2024/03/21 18:53:35;;;;;;;351.40;323.70;;;;;;;11.36;100.00;100806.76;214815;1288;99569;-85
2024/03/21 18:58:35;;;;;;;342.30;316.10;;;;;;;11.28;100.00;100797.44;214402;1289;141898;-85
2024/03/21 19:03:36;;;;;;;329.80;304.60;;;;;;;11.26;100.00;100794.58;215122;1285;139764;-83
2024/03/21 19:08:36;;;;;;;315.50;290.60;;;;;;;11.26;100.00;100785.45;214400;1285;140541;-83
2024/03/21 19:13:37;;;;;;;308.10;284.10;;;;;;;11.23;100.00;100786.10;214970;1284;139760;-85
2024/03/21 19:18:37;;;;;;;299.70;276.40;;;;;;;11.19;100.00;100795.19;214726;1286;140867;-85
2024/03/21 19:23:38;;;;;;;286.40;264.20;;;;;;;11.14;100.00;100801.88;217366;1285;99600;-85
2024/03/21 19:28:49;;;;;;;283.30;261.50;;;;;;;11.11;100.00;100807.96;214627;1285;140963;-85
2024/03/21 19:33:50;;;;;;;244.70;225.30;;;;;;;11.08;100.00;100807.38;215036;1287;140217;-85
2024/03/21 19:38:51;;;;;;;253.70;234.50;;;;;;;11.04;100.00;100804.80;214718;1288;141621;-85
2024/03/21 19:43:52;;;;;;;256.60;236.20;;;;;;;11.02;100.00;100806.97;214959;1285;139937;-84
2024/03/21 19:48:54;;;;;;;237.20;219.50;;;;;;;10.99;100.00;100809.84;214745;1288;141070;-84
2024/03/21 19:53:54;;;;;;;247.30;229.20;;;;;;;10.97;100.00;100808.70;215075;1291;99276;-86
2024/03/21 19:58:54;;;;;;;244.10;226.10;;;;;;;10.96;100.00;100811.68;214584;1288;139817;-84
2024/03/21 20:03:55;;;;;;;245.80;227.40;;;;;;;10.94;100.00;100801.50;215354;1285;139776;-85
2024/03/21 20:08:56;;;;;;;258.40;240.00;;;;;;;10.92;100.00;100801.39;214761;1288;140700;-84
2024/03/21 20:13:56;;;;;;;195.60;182.10;;;;;;;10.90;100.00;100794.67;215500;1285;139767;-83
2024/03/21 20:18:57;;;;;;;218.10;202.70;;;;;;;10.89;100.00;100799.69;214839;1285;141518;-85
2024/03/21 20:23:58;;;;;;;241.10;224.00;;;;;;;10.89;100.00;100820.69;217330;1286;98835;-85
2024/03/21 20:28:58;;;;;;;237.00;220.40;;;;;;;10.87;100.00;100831.34;215419;1288;141315;-84
2024/03/21 20:33:58;;;;;;;208.50;194.70;;;;;;;10.85;100.00;100838.95;215686;1288;139824;-85
2024/03/21 20:39:00;;;;;;;247.60;230.60;;;;;;;10.84;100.00;100846.58;214826;1285;141726;-85
2024/03/21 20:44:00;;;;;;;253.70;236.00;;;;;;;10.82;100.00;100844.52;215095;1285;139792;-85
2024/03/21 20:49:01;;;;;;;218.10;203.40;;;;;;;10.80;100.00;100847.59;213459;1288;140743;-85
2024/03/21 20:54:01;;;;;;;265.50;246.70;;;;;;;10.77;100.00;100850.15;213915;1288;99767;-85
2024/03/21 20:59:02;;;;;;;230.80;214.60;;;;;;;10.75;100.00;100851.45;213484;1291;140859;-85
2024/03/21 21:04:03;;;;;;;236.20;220.00;;;;;;;10.72;100.00;100855.89;213848;1288;139782;-84
2024/03/21 21:09:04;;;;;;;218.70;203.80;;;;;;;10.69;100.00;100866.85;213362;1290;140942;-84
2024/03/21 21:14:07;;;;;;;200.30;187.10;;;;;;;10.64;100.00;100872.73;213789;1286;139764;-85
2024/03/21 21:19:07;;;;;;;190.70;177.70;;;;;;;10.60;100.00;100881.71;213327;1286;141263;-85
2024/03/21 21:24:08;;;;;;;165.70;153.60;;;;;;;10.57;100.00;100885.11;215592;1289;108495;-84
2024/03/21 21:29:08;;;;;;;181.60;169.10;;;;;;;10.55;100.00;100890.34;213335;1285;141891;-85
2024/03/21 21:34:10;;;;;;;179.90;167.70;;;;;;;10.53;100.00;100892.58;213680;1285;140486;-85
2024/03/21 21:39:10;;;;;;;156.50;146.00;;;;;;;10.50;100.00;100894.65;213357;1286;140497;-86
2024/03/21 21:44:10;;;;;;;149.40;139.60;;;;;;;10.47;100.00;100898.52;213913;1288;139918;-86
2024/03/21 21:49:11;;;;;;;143.40;133.70;;;;;;;10.46;100.00;100892.21;213282;1289;141563;-86
2024/03/21 21:54:11;;;;;;;157.10;147.30;;;;;;;10.43;100.00;100895.46;213990;1285;206261;-86
2024/03/21 21:59:12;;;;;;;151.90;141.60;;;;;;;10.39;100.00;100894.76;213623;1289;140872;-86
2024/03/21 22:04:12;;;;;;;140.00;130.40;;;;;;;10.35;100.00;100894.83;213971;1286;139788;-85
2024/03/21 22:09:13;;;;;;;138.90;129.80;;;;;;;10.32;100.00;100893.52;213261;1289;140918;-85